Latest Weather Observations for Taree Airport

IDN60801

Issued at 6:03 am EDT Tuesday 9 February 2016 (issued every 30 minutes, with the page automatically refreshed every 10 minutes)

About weather observations | Map of weather stations | Latest weather observations for NSW | Other Formats
Station Details ID: 060141 Name: TAREE AIRPORT AWS Lat: -31.89 Lon: 152.51 Height: 8.0 m
Data from the previous 72 hours. | See also: Recent months at Taree Airport
Date/Time
EDT
Temp
°C
App
Temp
°C
Dew
Point
Rel
Hum
%
Delta-T
°C
Wind Press
QNH
hPa
Press
MSL
hPa
Rain
since 9 am
mm
Dir
 
Spd
km/h
Gust
km/h
Spd
kts
Gust
kts
09/06:00am 18.7 19.2 17.5 93 0.7 W 11 15 6 8 1017.3 1017.2 0.0
09/05:30am 18.8 19.4 17.6 93 0.7 W 11 13 6 7 1017.0 1016.9 0.0
09/05:00am 18.8 19.3 17.5 92 0.8 W 11 13 6 7 1016.7 1016.6 0.0
09/04:30am 19.1 19.7 17.6 91 0.9 W 11 15 6 8 1016.6 1016.5 0.0
09/04:00am 19.4 20.0 17.7 90 1.0 W 11 15 6 8 1016.6 1016.5 0.0
09/03:30am 19.5 20.1 17.8 90 1.0 W 11 15 6 8 1016.8 1016.7 0.0
09/03:00am 19.8 20.4 17.8 88 1.2 W 11 13 6 7 1016.8 1016.7 0.0
09/02:30am 19.9 20.2 18.0 89 1.2 WSW 13 15 7 8 1016.9 1016.8 0.0
09/02:00am 19.7 20.0 18.0 90 1.0 W 13 15 7 8 1017.2 1017.1 0.0
09/01:30am 19.7 20.2 17.5 87 1.3 WSW 11 13 6 7 1017.5 1017.4 0.0
09/01:00am 19.7 20.0 17.1 85 1.6 W 11 13 6 7 1017.6 1017.5 0.0
09/12:30am 20.1 20.9 17.3 84 1.7 W 9 11 5 6 1018.0 1017.9 0.0
09/12:00am 20.3 20.7 17.3 83 1.8 W 11 13 6 7 1018.0 1017.9 0.0
 
Date/Time
EDT
Temp
°C
App
Temp
°C
Dew
Point
Rel
Hum
%
Delta-T
°C
Wind Press
QNH
hPa
Press
MSL
hPa
Rain
since 9 am
mm
Dir
 
Spd
km/h
Gust
km/h
Spd
kts
Gust
kts
08/11:30pm 20.5 21.9 17.7 84 1.7 WSW 7 9 4 5 1018.0 1017.9 0.0
08/11:00pm 21.0 21.5 17.4 80 2.2 W 11 13 6 7 1018.1 1018.0 0.0
08/10:30pm 21.6 22.4 17.4 77 2.6 W 9 11 5 6 1018.2 1018.1 0.0
08/10:00pm 21.9 23.3 17.7 77 2.6 W 7 9 4 5 1018.1 1018.0 0.0
08/09:30pm 22.3 23.5 17.4 74 3.0 WSW 7 9 4 5 1018.0 1017.9 0.0
08/09:00pm 22.7 23.5 17.4 72 3.3 WSW 9 11 5 6 1017.6 1017.5 0.0
08/08:30pm 22.5 23.7 17.4 73 3.1 SW 7 13 4 7 1017.4 1017.3 0.0
08/08:00pm 23.0 24.1 17.2 70 3.6 S 7 9 4 5 1017.3 1017.2 0.0
08/07:30pm 23.7 24.1 17.2 67 4.0 S 11 15 6 8 1016.9 1016.8 0.0
08/07:00pm 24.2 23.7 17.0 64 4.4 SSE 15 24 8 13 1016.8 1016.7 0.0
08/06:30pm 24.9 23.7 17.1 62 4.8 SE 19 24 10 13 1016.4 1016.3 0.0
08/06:00pm 25.4 24.2 17.1 60 5.1 SE 19 26 10 14 1016.3 1016.2 0.0
08/05:30pm 26.0 24.8 17.4 59 5.4 SE 20 28 11 15 1016.3 1016.2 0.0
08/05:00pm 25.8 24.5 16.9 58 5.5 SE 19 26 10 14 1016.3 1016.2 0.0
08/04:30pm 26.0 24.5 16.8 57 5.7 SE 20 28 11 15 1016.4 1016.3 0.0
08/04:00pm 26.2 24.7 16.7 56 5.9 SE 20 28 11 15 1016.4 1016.3 0.0
08/03:30pm 26.5 24.3 17.0 56 5.9 SE 24 33 13 18 1016.4 1016.3 0.0
08/03:00pm 26.1 23.9 16.9 57 5.7 SE 24 32 13 17 1016.6 1016.5 0.0
08/02:30pm 25.9 24.8 17.8 61 5.1 SE 20 33 11 18 1016.9 1016.8 0.0
08/02:00pm 26.0 24.2 17.9 61 5.1 SE 24 33 13 18 1017.1 1017.0 0.0
08/01:30pm 26.0 24.8 18.4 63 4.8 SE 22 37 12 20 1017.2 1017.1 0.0
08/01:00pm 26.1 25.2 18.2 61 5.0 SE 20 32 11 17 1017.3 1017.2 0.0
08/12:30pm 25.7 24.4 18.1 63 4.8 SE 22 30 12 16 1017.5 1017.4 0.0
08/12:00pm 24.3 25.7 20.4 79 2.5 WSW 13 17 7 9 1017.8 1017.7 0.0
08/11:30am 24.3 25.8 18.9 72 3.4 W 9 15 5 8 1017.9 1017.8 0.0
08/11:00am 24.2 25.7 19.7 76 2.9 WSW 11 19 6 10 1018.0 1017.9 0.0
08/10:30am 22.8 24.2 19.6 82 2.0 WSW 11 17 6 9 1018.2 1018.1 0.0
08/10:00am 22.3 22.6 17.9 76 2.7 WSW 13 19 7 10 1018.1 1018.0 0.0
08/09:30am 21.3 22.1 17.3 78 2.5 WNW 9 15 5 8 1017.9 1017.8 0.0
08/09:28am 21.4 23.0 18.2 82 2.0 WNW 7 13 4 7 1017.9 1017.8 0.0
08/09:13am 20.6 21.4 17.2 81 2.1 WSW 9 17 5 9 1017.9 1017.8 0.0
08/09:00am 20.7 20.5 16.7 78 2.4 W 13 19 7 10 1017.8 1017.7 0.0
08/08:30am 20.3 20.0 16.5 79 2.3 W 13 17 7 9 1017.6 1017.5 0.0
08/08:00am 19.8 19.1 16.3 80 2.1 W 15 20 8 11 1017.4 1017.3 0.0
08/07:30am 18.7 18.2 15.9 84 1.7 W 13 19 7 10 1017.2 1017.1 0.0
08/07:00am 18.1 18.0 15.9 87 1.3 W 11 15 6 8 1017.0 1016.9 0.0
08/06:30am 17.7 17.5 15.7 88 1.2 WSW 11 13 6 7 1016.7 1016.6 0.0
08/06:00am 18.1 17.9 15.7 86 1.4 W 11 15 6 8 1016.4 1016.3 0.0
08/05:30am 17.8 17.6 15.8 88 1.2 W 11 13 6 7 1016.3 1016.2 0.0
08/05:00am 17.6 17.8 15.8 89 1.1 W 9 13 5 7 1016.3 1016.2 0.0
08/04:30am 17.5 17.7 15.8 90 1.0 WSW 9 9 5 5 1016.2 1016.1 0.0
08/04:00am 17.6 17.5 15.9 90 1.0 W 11 15 6 8 1016.0 1015.9 0.0
08/03:30am 17.5 17.7 15.8 90 1.0 WNW 9 13 5 7 1016.2 1016.1 0.0
08/03:00am 17.8 17.8 16.3 91 0.9 W 11 15 6 8 1016.5 1016.4 0.0
08/02:30am 17.4 17.8 16.4 94 0.6 WSW 9 11 5 6 1016.8 1016.7 0.0
08/02:00am 17.3 17.2 16.0 92 0.8 W 11 13 6 7 1016.7 1016.6 0.0
08/01:30am 17.3 17.7 16.2 93 0.7 WNW 9 11 5 6 1017.1 1017.0 0.0
08/01:00am 17.7 18.2 16.6 93 0.7 W 9 11 5 6 1017.4 1017.3 0.0
08/12:30am 17.8 18.6 16.3 91 0.9 W 7 9 4 5 1017.5 1017.4 0.0
08/12:00am 18.3 18.3 16.3 88 1.2 W 11 13 6 7 1017.7 1017.6 0.0
 
Date/Time
EDT
Temp
°C
App
Temp
°C
Dew
Point
Rel
Hum
%
Delta-T
°C
Wind Press
QNH
hPa
Press
MSL
hPa
Rain
since 9 am
mm
Dir
 
Spd
km/h
Gust
km/h
Spd
kts
Gust
kts
07/11:30pm 18.6 19.5 16.6 88 1.2 NW 7 7 4 4 1017.8 1017.7 0.0
07/11:00pm 18.7 19.8 16.7 88 1.2 WNW 6 7 3 4 1017.9 1017.8 0.0
07/10:30pm 19.4 20.4 16.8 85 1.6 W 7 9 4 5 1018.0 1017.9 0.0
07/10:00pm 19.7 22.1 17.1 85 1.6 CALM 0 0 0 0 1017.8 1017.7 0.0
07/09:30pm 19.6 20.9 17.0 85 1.6 NW 6 7 3 4 1017.6 1017.5 0.0
07/09:00pm 20.7 23.1 17.1 80 2.2 CALM 0 0 0 0 1017.3 1017.2 0.0
07/08:30pm 20.8 23.0 16.4 76 2.7 CALM 0 0 0 0 1017.0 1016.9 0.0
07/08:00pm 21.8 22.9 16.5 72 3.2 SSE 6 7 3 4 1016.6 1016.5 0.0
07/07:30pm 22.8 23.1 15.9 65 4.2 SSE 9 11 5 6 1016.3 1016.2 0.0
07/07:00pm 23.4 22.8 15.7 62 4.6 SE 13 17 7 9 1016.0 1015.9 0.0
07/06:30pm 23.9 23.2 15.4 59 5.1 SE 13 17 7 9 1015.7 1015.6 0.0
07/06:00pm 24.5 23.5 15.7 58 5.3 SE 15 20 8 11 1015.4 1015.3 0.0
07/05:30pm 24.8 23.3 15.4 56 5.7 SE 17 22 9 12 1015.4 1015.3 0.0
07/05:00pm 25.0 23.5 16.2 58 5.4 ESE 19 26 10 14 1015.3 1015.2 0.0
07/04:30pm 24.9 22.7 15.0 54 5.9 SE 20 32 11 17 1015.3 1015.2 0.0
07/04:00pm 25.3 23.1 15.0 53 6.2 SE 20 32 11 17 1015.4 1015.3 0.0
07/03:30pm 25.1 22.9 14.9 53 6.1 SE 20 32 11 17 1015.7 1015.6 0.0
07/03:00pm 25.1 22.6 13.6 49 6.7 SE 19 30 10 16 1016.0 1015.9 0.0
07/02:30pm 25.2 22.6 13.7 49 6.8 SSE 20 30 11 16 1016.0 1015.9 0.0
07/02:00pm 25.4 23.2 14.8 52 6.3 SE 20 28 11 15 1016.0 1015.9 0.0
07/01:30pm 25.2 23.1 15.2 54 6.0 SE 20 28 11 15 1016.2 1016.1 0.0
07/01:00pm 24.8 23.5 14.9 54 5.9 SSE 15 26 8 14 1016.3 1016.2 0.0
07/12:30pm 25.4 24.3 15.4 54 6.0 S 15 19 8 10 1016.5 1016.4 0.0
07/12:00pm 24.4 22.7 14.8 55 5.7 S 17 24 9 13 1016.8 1016.7 0.0
07/11:30am 24.5 23.2 14.9 55 5.7 SSW 15 19 8 10 1017.0 1016.9 0.0
07/11:00am 24.6 22.8 14.4 53 6.0 SSW 17 26 9 14 1017.1 1017.0 0.0
07/10:30am 24.4 22.7 14.8 55 5.7 SSW 17 20 9 11 1017.0 1016.9 0.0
07/10:00am 23.7 23.6 17.0 66 4.1 WSW 13 17 7 9 1017.1 1017.0 0.0
07/09:30am 22.8 23.2 17.3 71 3.4 WSW 11 17 6 9 1017.0 1016.9 0.0
07/09:00am 21.2 21.0 16.8 76 2.7 WSW 13 15 7 8 1017.0 1016.9 0.0
07/08:30am 20.2 20.8 16.8 81 2.1 W 9 13 5 7 1016.9 1016.8 0.0
07/08:00am 18.8 18.5 16.4 86 1.4 W 13 15 7 8 1016.9 1016.8 0.0
07/07:30am 17.9 17.5 16.1 89 1.1 WSW 13 17 7 9 1016.5 1016.4 0.0
07/07:00am 16.9 16.8 15.9 94 0.6 W 11 15 6 8 1016.2 1016.1 0.0
07/06:30am 16.7 17.0 15.9 95 0.5 W 9 13 5 7 1015.8 1015.7 0.0
07/06:00am 16.8 17.0 15.8 94 0.6 W 9 11 5 6 1015.7 1015.6 0.0
07/05:30am 16.8 16.6 15.8 94 0.6 W 11 13 6 7 1015.5 1015.4 0.0
07/05:00am 17.0 16.9 15.9 93 0.6 W 11 15 6 8 1015.4 1015.3 0.0
07/04:30am 17.2 16.8 16.1 93 0.7 W 13 15 7 8 1015.5 1015.4 0.0
07/04:00am 17.4 17.0 16.1 92 0.8 W 13 15 7 8 1015.5 1015.4 0.0
07/03:30am 17.3 17.3 16.2 93 0.7 W 11 15 6 8 1015.5 1015.4 0.0
07/03:00am 17.4 17.3 16.1 92 0.8 W 11 13 6 7 1015.6 1015.5 0.0
07/02:30am 17.5 17.1 16.2 92 0.8 W 13 15 7 8 1015.9 1015.8 0.0
07/02:00am 17.7 17.7 16.2 91 0.9 W 11 15 6 8 1016.1 1016.0 0.0
07/01:30am 18.1 18.5 16.3 89 1.1 WNW 9 11 5 6 1016.3 1016.2 0.0
07/01:00am 18.2 18.6 16.4 89 1.1 W 9 15 5 8 1016.5 1016.4 0.0
07/12:30am 18.4 19.3 16.2 87 1.3 NW 6 7 3 4 1016.5 1016.4 0.0
07/12:00am 18.9 18.8 16.1 84 1.7 W 11 11 6 6 1016.5 1016.4 0.0
 
Date/Time
EDT
Temp
°C
App
Temp
°C
Dew
Point
Rel
Hum
%
Delta-T
°C
Wind Press
QNH
hPa
Press
MSL
hPa
Rain
since 9 am
mm
Dir
 
Spd
km/h
Gust
km/h
Spd
kts
Gust
kts
06/11:30pm 19.2 19.7 16.6 85 1.6 WSW 9 13 5 7 1016.8 1016.7 0.0
06/11:00pm 19.5 19.5 16.3 82 1.9 W 11 13 6 7 1016.9 1016.8 0.0
06/10:30pm 19.8 19.8 16.3 80 2.1 WSW 11 13 6 7 1017.2 1017.1 0.0
06/10:00pm 19.6 20.0 16.4 82 1.9 WSW 9 11 5 6 1016.7 1016.6 0.0
06/09:30pm 20.1 20.9 16.3 79 2.3 SW 7 9 4 5 1016.5 1016.4 0.0
06/09:00pm 20.7 21.1 16.3 76 2.6 SSW 9 13 5 7 1016.3 1016.2 0.0
06/08:30pm 20.9 21.7 16.3 75 2.8 SW 7 9 4 5 1016.2 1016.1 0.0
06/08:00pm 21.2 21.6 16.2 73 3.0 SSW 9 11 5 6 1016.2 1016.1 0.0
06/07:30pm 22.1 22.0 15.9 68 3.7 S 11 13 6 7 1016.0 1015.9 0.0
06/07:00pm 22.6 22.0 15.7 65 4.1 SSE 13 17 7 9 1015.4 1015.3 0.0
06/06:30pm 22.6 21.3 15.9 66 4.0 S 17 24 9 13 1015.0 1014.9 0.0
06/06:00pm 23.0 21.0 15.6 63 4.4 S 20 32 11 17 1014.9 1014.8 0.0
06/05:30pm 23.2 21.1 15.3 61 4.7 SSE 20 30 11 16 1014.6 1014.5 0.0
06/05:00pm 24.0 21.1 16.0 61 4.9 SSE 26 33 14 18 1014.6 1014.5 0.0
06/04:30pm 24.1 20.9 15.3 58 5.3 SSE 26 32 14 17 1014.8 1014.7 0.0
06/04:00pm 24.5 22.5 16.5 61 4.9 SSE 22 32 12 17 1014.8 1014.7 0.0
06/03:30pm 24.5 22.0 16.2 60 5.1 SSE 24 33 13 18 1015.0 1014.9 0.0
06/03:00pm 24.5 21.3 15.4 57 5.5 SSE 26 33 14 18 1015.2 1015.1 0.0
06/02:30pm 24.8 22.0 15.4 56 5.7 SE 24 32 13 17 1015.3 1015.2 0.0
06/02:00pm 23.6 21.1 16.1 62 4.5 SE 24 33 13 18 1015.5 1015.4 0.0
06/01:30pm 23.7 20.8 15.2 59 5.1 SSE 24 32 13 17 1015.7 1015.6 0.0
06/01:00pm 23.6 21.1 15.1 59 5.1 SSE 22 32 12 17 1015.9 1015.8 0.0
06/12:30pm 23.6 21.4 16.9 66 4.1 SSE 24 32 13 17 1016.1 1016.0 0.0
06/12:00pm 23.7 22.7 16.5 64 4.4 SSE 17 24 9 13 1016.2 1016.1 0.0
06/11:30am 23.0 21.0 15.6 63 4.4 SSE 20 30 11 16 1016.2 1016.1 0.0
06/11:00am 22.6 21.6 17.5 73 3.2 SE 19 26 10 14 1016.5 1016.4 0.0
06/10:30am 22.1 21.0 17.7 76 2.7 SE 20 33 11 18 1016.5 1016.4 0.0
06/10:00am 22.3 19.5 17.4 74 3.0 SE 28 35 15 19 1016.5 1016.4 0.0
06/09:30am 22.7 21.6 17.4 72 3.3 SSE 19 26 10 14 1016.2 1016.1 0.0
06/09:00am 21.7 21.6 17.9 79 2.4 S 15 20 8 11 1016.1 1016.0 56.6
06/08:30am 21.7 21.9 18.5 82 2.0 SSE 15 22 8 12 1016.0 1015.9 56.6
06/08:00am 20.9 21.8 18.5 86 1.5 SSW 11 17 6 9 1015.8 1015.7 56.6
06/07:30am 19.7 20.8 18.0 90 1.0 WSW 9 11 5 6 1015.5 1015.4 56.6
06/07:00am 19.5 20.9 17.8 90 1.0 W 7 9 4 5 1015.2 1015.1 56.6
06/06:30am 19.4 20.5 17.9 91 0.9 WSW 9 11 5 6 1014.7 1014.6 56.6

Other Formats:

Comma delimited format used in spreadsheet applications
http://www.bom.gov.au/fwo/IDN60801/IDN60801.95784.axf

JavaScript Object Notation format (JSON) in row-major order
http://www.bom.gov.au/fwo/IDN60801/IDN60801.95784.json